createdAt,value
2022-12-08T00:01:16.553Z,100135.41
2022-12-08T00:03:43.315Z,100134.47
2022-12-08T00:06:40.333Z,100134.00
2022-12-08T00:09:22.091Z,100130.44
2022-12-08T00:11:54.034Z,100121.97
2022-12-08T00:14:22.842Z,100127.31
2022-12-08T00:16:49.044Z,100129.72
2022-12-08T00:19:15.213Z,100132.47
2022-12-08T00:21:41.349Z,100132.47
2022-12-08T00:24:07.740Z,100125.34
2022-12-08T00:26:33.850Z,100128.16
2022-12-08T00:29:00.478Z,100129.09
2022-12-08T00:31:26.644Z,100126.56
2022-12-08T00:33:52.798Z,100116.88
2022-12-08T00:36:18.956Z,100122.97
2022-12-08T00:38:47.220Z,100120.81
2022-12-08T00:41:39.969Z,100117.94
2022-12-08T00:44:08.223Z,100118.13
2022-12-08T00:46:34.395Z,100115.09
2022-12-08T00:49:00.639Z,100112.16
2022-12-08T00:51:26.755Z,100116.06
2022-12-08T00:53:52.887Z,100107.16
2022-12-08T00:56:19.010Z,100114.00
2022-12-08T00:58:45.133Z,100104.53
2022-12-08T01:01:12.632Z,100103.50
2022-12-08T01:03:38.827Z,100101.50
2022-12-08T01:06:05.945Z,100098.84
2022-12-08T01:08:32.903Z,100096.78
2022-12-08T01:11:14.161Z,100105.50
2022-12-08T01:13:40.630Z,100106.16
2022-12-08T01:16:06.776Z,100113.88
2022-12-08T01:18:33.573Z,100111.88
2022-12-08T01:21:07.261Z,100110.50
2022-12-08T01:23:34.431Z,100113.88
2022-12-08T01:26:08.522Z,100106.19
2022-12-08T01:28:34.650Z,100104.94
2022-12-08T01:31:01.915Z,100103.88
2022-12-08T01:33:29.664Z,100100.91
2022-12-08T01:35:56.375Z,100104.41
2022-12-08T01:38:22.868Z,100097.44
2022-12-08T01:40:49.446Z,100102.53
2022-12-08T01:43:20.954Z,100097.03
2022-12-08T01:45:47.810Z,100099.47
2022-12-08T01:48:27.246Z,100093.03
2022-12-08T01:50:55.653Z,100093.03
2022-12-08T01:53:30.289Z,100091.13
2022-12-08T01:56:00.473Z,100078.25
2022-12-08T01:58:36.219Z,100086.72
2022-12-08T02:01:02.552Z,100079.72
2022-12-08T02:03:34.146Z,100077.00
2022-12-08T02:06:00.261Z,100077.63
2022-12-08T02:08:27.982Z,100070.47
2022-12-08T02:10:54.118Z,100066.56
2022-12-08T02:13:22.380Z,100068.34
2022-12-08T02:16:10.216Z,100069.19
2022-12-08T02:19:29.587Z,100064.22
2022-12-08T02:22:09.945Z,100057.38
2022-12-08T02:25:15.336Z,100052.72
2022-12-08T02:27:56.268Z,100058.84
2022-12-08T02:30:41.831Z,100054.50
2022-12-08T02:33:38.232Z,100051.75
2022-12-08T02:36:19.838Z,100055.22
2022-12-08T02:38:56.308Z,100051.47
2022-12-08T02:42:01.494Z,100053.84
2022-12-08T02:44:37.398Z,100046.69
2022-12-08T02:47:10.240Z,100043.00
2022-12-08T02:49:36.580Z,100042.75
2022-12-08T02:52:12.426Z,100036.66
2022-12-08T02:54:50.557Z,100040.75
2022-12-08T02:57:38.392Z,100032.63
2022-12-08T03:00:11.359Z,100030.59
2022-12-08T03:02:43.603Z,100033.22
2022-12-08T03:05:44.472Z,100020.19
2022-12-08T03:08:17.179Z,100011.53
2022-12-08T03:10:52.456Z,100012.38
2022-12-08T03:13:28.302Z,100001.81
2022-12-08T03:15:55.855Z,100007.94
2022-12-08T03:18:27.628Z,100000.97
2022-12-08T03:20:53.780Z,99999.06
2022-12-08T03:23:22.195Z,99993.78
2022-12-08T03:26:08.578Z,99988.53
2022-12-08T03:28:34.970Z,99987.78
2022-12-08T03:31:06.377Z,99981.53
2022-12-08T03:33:37.608Z,99977.25
2022-12-08T03:36:07.798Z,99976.25
2022-12-08T03:38:41.449Z,99973.53
2022-12-08T03:41:19.871Z,99972.44
2022-12-08T03:43:53.388Z,99968.97
2022-12-08T03:48:46.926Z,99957.59
2022-12-08T03:51:13.192Z,99945.22
2022-12-08T03:53:39.319Z,99951.34
2022-12-08T03:56:13.827Z,99944.16
2022-12-08T03:58:39.971Z,99946.69
2022-12-08T04:01:06.089Z,99931.06
